sensor_id;sensor_type;location;lat;lon;timestamp;pressure;altitude;pressure_sealevel;temperature;humidity
76847;BME280;65813;49.546;8.644;2023-08-01T03:49:11;99197.53;;;17.33;98.18
76847;BME280;65813;49.546;8.644;2023-08-01T03:53:12;99196.03;;;17.31;98.14
76847;BME280;65813;49.546;8.644;2023-08-01T03:57:12;99186.78;;;17.33;97.97
76847;BME280;65813;49.546;8.644;2023-08-01T04:01:13;99176.94;;;17.40;98.40
76847;BME280;65813;49.546;8.644;2023-08-01T04:05:13;99176.63;;;17.35;98.29
76847;BME280;65813;49.546;8.644;2023-08-01T04:09:13;99170.78;;;17.32;98.82
76847;BME280;65813;49.546;8.644;2023-08-01T04:13:14;99172.94;;;17.36;98.25
76847;BME280;65813;49.546;8.644;2023-08-01T04:17:14;99155.94;;;17.36;98.80
76847;BME280;65813;49.546;8.644;2023-08-01T04:21:15;99149.34;;;17.38;97.72
76847;BME280;65813;49.546;8.644;2023-08-01T04:25:15;99150.56;;;17.36;97.20
76847;BME280;65813;49.546;8.644;2023-08-01T04:29:16;99146.66;;;17.38;97.34
76847;BME280;65813;49.546;8.644;2023-08-01T04:33:18;99151.56;;;17.35;98.07
76847;BME280;65813;49.546;8.644;2023-08-01T04:37:18;99150.09;;;17.32;98.56
76847;BME280;65813;49.546;8.644;2023-08-01T04:41:22;99139.59;;;17.23;99.52
76847;BME280;65813;49.546;8.644;2023-08-01T04:45:22;99155.09;;;17.35;98.50
76847;BME280;65813;49.546;8.644;2023-08-01T04:49:23;99163.47;;;17.26;99.07
76847;BME280;65813;49.546;8.644;2023-08-01T04:53:24;99163.38;;;17.19;99.52
76847;BME280;65813;49.546;8.644;2023-08-01T04:57:24;99162.25;;;17.28;99.24
76847;BME280;65813;49.546;8.644;2023-08-01T05:01:25;99165.03;;;17.35;98.76
76847;BME280;65813;49.546;8.644;2023-08-01T05:05:26;99177.66;;;17.34;99.35
76847;BME280;65813;49.546;8.644;2023-08-01T05:09:26;99195.00;;;17.32;99.22
76847;BME280;65813;49.546;8.644;2023-08-01T05:13:27;99191.75;;;17.22;98.96
76847;BME280;65813;49.546;8.644;2023-08-01T05:17:27;99188.44;;;17.20;99.79
76847;BME280;65813;49.546;8.644;2023-08-01T05:21:27;99193.91;;;17.26;98.99
76847;BME280;65813;49.546;8.644;2023-08-01T05:25:28;99186.00;;;17.25;98.77
76847;BME280;65813;49.546;8.644;2023-08-01T05:29:28;99178.31;;;17.22;99.73
76847;BME280;65813;49.546;8.644;2023-08-01T05:33:28;99177.00;;;17.17;100.00
76847;BME280;65813;49.546;8.644;2023-08-01T05:37:28;99171.91;;;17.23;97.75
76847;BME280;65813;49.546;8.644;2023-08-01T05:41:29;99173.00;;;17.13;98.00
76847;BME280;65813;49.546;8.644;2023-08-01T05:45:29;99178.75;;;17.10;97.61
76847;BME280;65813;49.546;8.644;2023-08-01T05:49:30;99199.81;;;17.07;97.80
76847;BME280;65813;49.546;8.644;2023-08-01T05:53:30;99199.91;;;16.99;98.06
76847;BME280;65813;49.546;8.644;2023-08-01T05:57:30;99182.50;;;16.87;98.37
76847;BME280;65813;49.546;8.644;2023-08-01T06:01:31;99168.44;;;16.85;98.36
76847;BME280;65813;49.546;8.644;2023-08-01T06:05:31;99161.00;;;16.87;98.00
76847;BME280;65813;49.546;8.644;2023-08-01T06:09:31;99155.41;;;16.74;98.39
76847;BME280;65813;49.546;8.644;2023-08-01T06:13:32;99158.56;;;16.77;98.92
76847;BME280;65813;49.546;8.644;2023-08-01T06:17:32;99161.56;;;16.82;97.87
76847;BME280;65813;49.546;8.644;2023-08-01T06:21:32;99149.88;;;16.90;98.17
76847;BME280;65813;49.546;8.644;2023-08-01T06:25:33;99157.03;;;16.97;98.23
76847;BME280;65813;49.546;8.644;2023-08-01T06:29:33;99168.97;;;16.80;98.76
76847;BME280;65813;49.546;8.644;2023-08-01T06:33:33;99166.28;;;16.80;98.21
76847;BME280;65813;49.546;8.644;2023-08-01T06:37:34;99167.59;;;16.84;98.06
76847;BME280;65813;49.546;8.644;2023-08-01T06:41:34;99158.13;;;16.88;98.05
76847;BME280;65813;49.546;8.644;2023-08-01T06:45:34;99158.94;;;16.74;98.04
76847;BME280;65813;49.546;8.644;2023-08-01T06:49:34;99167.09;;;16.81;99.02
76847;BME280;65813;49.546;8.644;2023-08-01T06:53:35;99168.78;;;16.82;99.42
76847;BME280;65813;49.546;8.644;2023-08-01T06:57:35;99164.31;;;16.74;99.84
76847;BME280;65813;49.546;8.644;2023-08-01T07:01:36;99164.78;;;16.78;98.66
76847;BME280;65813;49.546;8.644;2023-08-01T07:05:40;99150.81;;;16.82;98.93
76847;BME280;65813;49.546;8.644;2023-08-01T07:09:40;99151.16;;;16.94;99.28
76847;BME280;65813;49.546;8.644;2023-08-01T07:13:41;99150.81;;;16.97;98.08
76847;BME280;65813;49.546;8.644;2023-08-01T07:17:41;99148.31;;;16.95;98.39
76847;BME280;65813;49.546;8.644;2023-08-01T07:21:41;99130.50;;;16.94;99.68
76847;BME280;65813;49.546;8.644;2023-08-01T07:25:44;99142.50;;;17.06;99.18
76847;BME280;65813;49.546;8.644;2023-08-01T07:29:44;99150.56;;;17.06;98.29
76847;BME280;65813;49.546;8.644;2023-08-01T07:33:45;99163.06;;;17.14;98.54
76847;BME280;65813;49.546;8.644;2023-08-01T07:37:45;99155.38;;;17.11;98.75
76847;BME280;65813;49.546;8.644;2023-08-01T07:41:45;99164.47;;;17.10;99.09
76847;BME280;65813;49.546;8.644;2023-08-01T07:45:46;99176.34;;;17.15;99.20
76847;BME280;65813;49.546;8.644;2023-08-01T07:49:46;99175.06;;;17.26;98.32
76847;BME280;65813;49.546;8.644;2023-08-01T07:53:47;99178.22;;;17.30;99.03
76847;BME280;65813;49.546;8.644;2023-08-01T07:57:47;99185.63;;;17.28;99.15
76847;BME280;65813;49.546;8.644;2023-08-01T08:01:48;99203.28;;;17.30;98.63
76847;BME280;65813;49.546;8.644;2023-08-01T08:05:49;99201.78;;;17.28;98.11
76847;BME280;65813;49.546;8.644;2023-08-01T08:09:49;99192.22;;;17.25;99.36
76847;BME280;65813;49.546;8.644;2023-08-01T08:13:49;99203.47;;;17.29;99.72
76847;BME280;65813;49.546;8.644;2023-08-01T08:17:50;99188.63;;;17.33;99.11
76847;BME280;65813;49.546;8.644;2023-08-01T08:21:50;99188.41;;;17.34;97.74
76847;BME280;65813;49.546;8.644;2023-08-01T08:25:51;99187.22;;;17.37;99.54
76847;BME280;65813;49.546;8.644;2023-08-01T08:29:51;99201.06;;;17.48;99.04
76847;BME280;65813;49.546;8.644;2023-08-01T08:33:51;99242.09;;;17.36;93.35
76847;BME280;65813;49.546;8.644;2023-08-01T08:37:52;99246.75;;;17.04;93.70
76847;BME280;65813;49.546;8.644;2023-08-01T08:41:52;99242.47;;;16.95;93.44
76847;BME280;65813;49.546;8.644;2023-08-01T08:45:56;99232.91;;;16.93;91.35
76847;BME280;65813;49.546;8.644;2023-08-01T08:49:57;99227.75;;;16.69;91.46
76847;BME280;65813;49.546;8.644;2023-08-01T08:53:58;99227.78;;;16.60;90.96
76847;BME280;65813;49.546;8.644;2023-08-01T08:57:59;99221.16;;;16.71;93.18
76847;BME280;65813;49.546;8.644;2023-08-01T09:02:01;99231.91;;;16.71;93.05
76847;BME280;65813;49.546;8.644;2023-08-01T09:10:13;99233.97;;;17.06;94.73
76847;BME280;65813;49.546;8.644;2023-08-01T09:14:16;99238.66;;;17.27;96.65
76847;BME280;65813;49.546;8.644;2023-08-01T09:18:17;99238.84;;;17.40;96.21
76847;BME280;65813;49.546;8.644;2023-08-01T09:22:17;99245.06;;;17.55;95.04
76847;BME280;65813;49.546;8.644;2023-08-01T09:26:19;99239.94;;;17.31;94.65
76847;BME280;65813;49.546;8.644;2023-08-01T09:30:19;99243.03;;;17.43;94.85
76847;BME280;65813;49.546;8.644;2023-08-01T09:34:25;99240.97;;;17.45;97.49
76847;BME280;65813;49.546;8.644;2023-08-01T09:38:25;99249.19;;;17.66;98.79
76847;BME280;65813;49.546;8.644;2023-08-01T09:42:40;99246.59;;;17.73;97.88
76847;BME280;65813;49.546;8.644;2023-08-01T09:46:41;99248.56;;;17.79;96.70
76847;BME280;65813;49.546;8.644;2023-08-01T09:50:42;99246.69;;;17.94;96.33
76847;BME280;65813;49.546;8.644;2023-08-01T09:54:42;99233.81;;;18.10;94.02
76847;BME280;65813;49.546;8.644;2023-08-01T09:58:43;99241.50;;;18.28;90.43
76847;BME280;65813;49.546;8.644;2023-08-01T10:02:45;99247.25;;;18.40;92.01
76847;BME280;65813;49.546;8.644;2023-08-01T10:06:46;99238.78;;;18.43;88.88
76847;BME280;65813;49.546;8.644;2023-08-01T10:10:49;99236.88;;;18.79;88.84
76847;BME280;65813;49.546;8.644;2023-08-01T10:14:49;99238.03;;;19.40;85.48
76847;BME280;65813;49.546;8.644;2023-08-01T10:18:51;99242.78;;;19.66;81.07
76847;BME280;65813;49.546;8.644;2023-08-01T10:22:52;99254.22;;;19.61;80.87
76847;BME280;65813;49.546;8.644;2023-08-01T10:26:53;99248.06;;;19.46;79.62
76847;BME280;65813;49.546;8.644;2023-08-01T10:30:53;99252.94;;;19.57;78.31
76847;BME280;65813;49.546;8.644;2023-08-01T10:34:53;99261.97;;;19.71;76.89
76847;BME280;65813;49.546;8.644;2023-08-01T10:38:58;99262.97;;;19.70;73.95
76847;BME280;65813;49.546;8.644;2023-08-01T10:42:58;99264.78;;;19.91;71.63
76847;BME280;65813;49.546;8.644;2023-08-01T10:47:04;99260.38;;;19.90;69.23
76847;BME280;65813;49.546;8.644;2023-08-01T10:51:05;99256.84;;;19.89;68.52
76847;BME280;65813;49.546;8.644;2023-08-01T10:55:05;99254.72;;;19.78;70.07
76847;BME280;65813;49.546;8.644;2023-08-01T10:59:07;99262.38;;;19.68;69.55
76847;BME280;65813;49.546;8.644;2023-08-01T11:03:07;99267.44;;;19.50;69.65
76847;BME280;65813;49.546;8.644;2023-08-01T11:07:11;99303.38;;;19.29;73.38
76847;BME280;65813;49.546;8.644;2023-08-01T11:11:13;99304.28;;;18.94;77.10
76847;BME280;65813;49.546;8.644;2023-08-01T11:15:15;99303.81;;;18.69;78.40
76847;BME280;65813;49.546;8.644;2023-08-01T11:19:27;99317.97;;;18.71;77.52
76847;BME280;65813;49.546;8.644;2023-08-01T11:23:29;99315.47;;;18.70;78.19
76847;BME280;65813;49.546;8.644;2023-08-01T11:27:29;99320.63;;;19.28;77.98
76847;BME280;65813;49.546;8.644;2023-08-01T11:31:30;99309.66;;;19.85;76.09
76847;BME280;65813;49.546;8.644;2023-08-01T11:35:31;99299.31;;;20.30;72.65
76847;BME280;65813;49.546;8.644;2023-08-01T11:39:31;99299.25;;;20.64;68.99
76847;BME280;65813;49.546;8.644;2023-08-01T11:43:42;99304.38;;;21.20;67.08
76847;BME280;65813;49.546;8.644;2023-08-01T11:47:46;99300.66;;;21.34;66.59
76847;BME280;65813;49.546;8.644;2023-08-01T11:51:47;99315.63;;;21.56;65.62
76847;BME280;65813;49.546;8.644;2023-08-01T11:55:48;99318.34;;;21.36;64.67
76847;BME280;65813;49.546;8.644;2023-08-01T11:59:52;99326.63;;;20.95;64.05
76847;BME280;65813;49.546;8.644;2023-08-01T12:03:54;99320.91;;;20.64;62.70
76847;BME280;65813;49.546;8.644;2023-08-01T12:07:54;99336.84;;;20.46;63.17
76847;BME280;65813;49.546;8.644;2023-08-01T12:11:58;99323.34;;;20.52;63.55
76847;BME280;65813;49.546;8.644;2023-08-01T12:16:02;99335.22;;;21.12;61.03
76847;BME280;65813;49.546;8.644;2023-08-01T12:20:03;99334.81;;;21.35;61.44
76847;BME280;65813;49.546;8.644;2023-08-01T12:24:04;99324.38;;;21.32;58.22
76847;BME280;65813;49.546;8.644;2023-08-01T12:28:04;99316.88;;;21.99;58.39
76847;BME280;65813;49.546;8.644;2023-08-01T12:32:05;99309.13;;;21.96;59.40
76847;BME280;65813;49.546;8.644;2023-08-01T12:36:06;99318.66;;;22.25;58.04
76847;BME280;65813;49.546;8.644;2023-08-01T12:40:07;99314.78;;;22.59;56.85
76847;BME280;65813;49.546;8.644;2023-08-01T12:44:07;99311.28;;;22.45;55.92
76847;BME280;65813;49.546;8.644;2023-08-01T12:48:08;99320.44;;;22.57;56.56
76847;BME280;65813;49.546;8.644;2023-08-01T12:52:08;99316.13;;;22.88;58.04
76847;BME280;65813;49.546;8.644;2023-08-01T12:56:08;99313.50;;;22.75;54.73
76847;BME280;65813;49.546;8.644;2023-08-01T13:00:09;99326.69;;;22.58;54.59
76847;BME280;65813;49.546;8.644;2023-08-01T13:04:10;99312.50;;;22.56;57.18
76847;BME280;65813;49.546;8.644;2023-08-01T13:08:10;99323.47;;;22.30;55.68
76847;BME280;65813;49.546;8.644;2023-08-01T13:12:11;99311.84;;;21.96;55.55
76847;BME280;65813;49.546;8.644;2023-08-01T13:16:11;99322.69;;;21.96;52.10
76847;BME280;65813;49.546;8.644;2023-08-01T13:20:11;99326.25;;;21.90;54.17
76847;BME280;65813;49.546;8.644;2023-08-01T13:24:12;99323.53;;;21.77;51.31
76847;BME280;65813;49.546;8.644;2023-08-01T13:28:12;99342.53;;;21.97;54.81
76847;BME280;65813;49.546;8.644;2023-08-01T13:32:12;99330.63;;;22.04;52.70
76847;BME280;65813;49.546;8.644;2023-08-01T13:36:13;99325.50;;;22.47;52.53
76847;BME280;65813;49.546;8.644;2023-08-01T13:40:13;99318.66;;;22.83;52.17
76847;BME280;65813;49.546;8.644;2023-08-01T13:44:14;99332.63;;;22.86;49.48
76847;BME280;65813;49.546;8.644;2023-08-01T13:48:14;99329.94;;;22.80;50.90
76847;BME280;65813;49.546;8.644;2023-08-01T13:52:15;99326.66;;;22.64;52.29
76847;BME280;65813;49.546;8.644;2023-08-01T13:56:15;99314.03;;;22.39;50.64
76847;BME280;65813;49.546;8.644;2023-08-01T14:00:15;99322.56;;;22.42;54.29
76847;BME280;65813;49.546;8.644;2023-08-01T14:04:16;99321.31;;;22.89;52.08
76847;BME280;65813;49.546;8.644;2023-08-01T14:08:16;99319.25;;;23.23;49.54
76847;BME280;65813;49.546;8.644;2023-08-01T14:12:16;99322.88;;;22.72;53.25
76847;BME280;65813;49.546;8.644;2023-08-01T14:16:19;99330.41;;;23.08;51.68
76847;BME280;65813;49.546;8.644;2023-08-01T14:20:19;99336.09;;;23.00;48.81
76847;BME280;65813;49.546;8.644;2023-08-01T14:24:19;99345.25;;;22.74;49.49
76847;BME280;65813;49.546;8.644;2023-08-01T14:28:20;99350.50;;;22.56;49.66
76847;BME280;65813;49.546;8.644;2023-08-01T14:32:20;99345.03;;;22.69;52.01
76847;BME280;65813;49.546;8.644;2023-08-01T14:36:20;99344.69;;;22.97;48.88
76847;BME280;65813;49.546;8.644;2023-08-01T14:40:21;99346.91;;;22.62;48.07
76847;BME280;65813;49.546;8.644;2023-08-01T14:44:22;99352.34;;;22.69;47.69
76847;BME280;65813;49.546;8.644;2023-08-01T14:48:22;99352.00;;;22.96;48.00
76847;BME280;65813;49.546;8.644;2023-08-01T14:52:23;99334.91;;;22.89;46.74
76847;BME280;65813;49.546;8.644;2023-08-01T14:56:23;99345.31;;;22.54;49.46
76847;BME280;65813;49.546;8.644;2023-08-01T15:00:23;99347.91;;;22.30;47.01
76847;BME280;65813;49.546;8.644;2023-08-01T15:04:24;99343.28;;;22.37;50.87
76847;BME280;65813;49.546;8.644;2023-08-01T15:08:24;99345.31;;;22.54;51.76
76847;BME280;65813;49.546;8.644;2023-08-01T15:12:24;99347.25;;;22.41;49.94
76847;BME280;65813;49.546;8.644;2023-08-01T15:16:26;99341.41;;;22.24;49.44
76847;BME280;65813;49.546;8.644;2023-08-01T15:20:26;99342.91;;;22.13;48.15
76847;BME280;65813;49.546;8.644;2023-08-01T15:24:29;99349.81;;;22.09;49.42
76847;BME280;65813;49.546;8.644;2023-08-01T15:28:30;99348.75;;;22.10;48.20
76847;BME280;65813;49.546;8.644;2023-08-01T15:32:30;99349.00;;;22.02;50.66
76847;BME280;65813;49.546;8.644;2023-08-01T15:36:30;99355.06;;;21.98;53.39
76847;BME280;65813;49.546;8.644;2023-08-01T15:40:31;99359.03;;;21.95;51.04
76847;BME280;65813;49.546;8.644;2023-08-01T15:44:31;99364.88;;;21.99;50.67
76847;BME280;65813;49.546;8.644;2023-08-01T15:48:32;99366.53;;;21.93;52.14
76847;BME280;65813;49.546;8.644;2023-08-01T15:52:33;99382.56;;;21.88;52.01
76847;BME280;65813;49.546;8.644;2023-08-01T15:56:33;99389.88;;;21.81;51.54
76847;BME280;65813;49.546;8.644;2023-08-01T16:00:34;99406.56;;;21.72;52.28
76847;BME280;65813;49.546;8.644;2023-08-01T16:04:36;99422.44;;;21.68;55.05
76847;BME280;65813;49.546;8.644;2023-08-01T16:08:37;99433.63;;;21.32;56.70
76847;BME280;65813;49.546;8.644;2023-08-01T16:12:37;99428.53;;;21.09;58.94
76847;BME280;65813;49.546;8.644;2023-08-01T16:16:37;99432.59;;;20.86;60.36
76847;BME280;65813;49.546;8.644;2023-08-01T16:20:38;99424.06;;;20.82;60.85
76847;BME280;65813;49.546;8.644;2023-08-01T16:24:38;99428.34;;;20.70;62.57
76847;BME280;65813;49.546;8.644;2023-08-01T16:28:38;99432.41;;;20.46;62.40
76847;BME280;65813;49.546;8.644;2023-08-01T16:32:39;99449.19;;;20.14;62.84
76847;BME280;65813;49.546;8.644;2023-08-01T16:36:39;99459.28;;;20.27;58.69
76847;BME280;65813;49.546;8.644;2023-08-01T16:40:39;99467.97;;;19.94;60.80
76847;BME280;65813;49.546;8.644;2023-08-01T16:44:40;99478.91;;;19.86;63.34
76847;BME280;65813;49.546;8.644;2023-08-01T16:48:40;99474.41;;;19.93;61.93
76847;BME280;65813;49.546;8.644;2023-08-01T16:52:40;99478.03;;;19.79;62.02
76847;BME280;65813;49.546;8.644;2023-08-01T16:56:41;99479.59;;;19.88;62.44
76847;BME280;65813;49.546;8.644;2023-08-01T17:00:41;99480.22;;;19.90;61.93
76847;BME280;65813;49.546;8.644;2023-08-01T17:04:43;99481.16;;;20.04;61.82
76847;BME280;65813;49.546;8.644;2023-08-01T17:08:44;99483.09;;;20.38;61.72
76847;BME280;65813;49.546;8.644;2023-08-01T17:12:44;99488.63;;;20.51;59.62
76847;BME280;65813;49.546;8.644;2023-08-01T17:16:45;99479.63;;;20.44;60.16
76847;BME280;65813;49.546;8.644;2023-08-01T17:20:45;99482.75;;;20.41;57.88
76847;BME280;65813;49.546;8.644;2023-08-01T17:24:45;99488.47;;;20.31;58.46
76847;BME280;65813;49.546;8.644;2023-08-01T17:28:46;99475.53;;;20.27;57.91
76847;BME280;65813;49.546;8.644;2023-08-01T17:32:46;99492.16;;;20.24;58.41
76847;BME280;65813;49.546;8.644;2023-08-01T17:36:48;99502.25;;;20.15;58.97
76847;BME280;65813;49.546;8.644;2023-08-01T17:40:48;99522.00;;;20.09;60.35
76847;BME280;65813;49.546;8.644;2023-08-01T17:44:49;99571.16;;;19.77;65.47
76847;BME280;65813;49.546;8.644;2023-08-01T17:48:49;99589.13;;;18.90;70.93
76847;BME280;65813;49.546;8.644;2023-08-01T17:52:50;99595.41;;;18.53;74.29
76847;BME280;65813;49.546;8.644;2023-08-01T17:56:50;99570.09;;;18.54;75.69
76847;BME280;65813;49.546;8.644;2023-08-01T18:00:50;99577.84;;;18.57;75.82
76847;BME280;65813;49.546;8.644;2023-08-01T18:04:51;99585.09;;;18.56;76.40
76847;BME280;65813;49.546;8.644;2023-08-01T18:08:51;99574.88;;;18.66;75.01
76847;BME280;65813;49.546;8.644;2023-08-01T18:12:51;99580.31;;;18.58;76.78
76847;BME280;65813;49.546;8.644;2023-08-01T18:16:52;99579.50;;;18.58;76.97
76847;BME280;65813;49.546;8.644;2023-08-01T18:21:01;99577.06;;;18.26;80.26
76847;BME280;65813;49.546;8.644;2023-08-01T18:25:01;99575.47;;;18.16;80.99
76847;BME280;65813;49.546;8.644;2023-08-01T18:29:02;99593.78;;;18.44;81.13
76847;BME280;65813;49.546;8.644;2023-08-01T18:33:02;99586.59;;;17.68;83.01
76847;BME280;65813;49.546;8.644;2023-08-01T18:37:02;99584.97;;;17.51;84.13
76847;BME280;65813;49.546;8.644;2023-08-01T18:41:03;99583.66;;;17.47;86.36
76847;BME280;65813;49.546;8.644;2023-08-01T18:45:04;99581.59;;;17.49;84.16
76847;BME280;65813;49.546;8.644;2023-08-01T18:49:04;99578.28;;;17.78;83.39
76847;BME280;65813;49.546;8.644;2023-08-01T18:53:04;99597.97;;;18.01;82.14
76847;BME280;65813;49.546;8.644;2023-08-01T18:57:05;99601.28;;;18.11;80.68
76847;BME280;65813;49.546;8.644;2023-08-01T19:01:19;99615.72;;;17.95;82.41
76847;BME280;65813;49.546;8.644;2023-08-01T19:05:24;99620.22;;;18.03;81.85
76847;BME280;65813;49.546;8.644;2023-08-01T19:09:25;99622.91;;;18.26;81.29
76847;BME280;65813;49.546;8.644;2023-08-01T19:13:25;99614.72;;;18.19;81.24
76847;BME280;65813;49.546;8.644;2023-08-01T19:17:26;99620.75;;;17.98;82.97
76847;BME280;65813;49.546;8.644;2023-08-01T19:21:26;99632.84;;;18.02;82.40
76847;BME280;65813;49.546;8.644;2023-08-01T19:25:26;99625.69;;;17.87;83.41
76847;BME280;65813;49.546;8.644;2023-08-01T19:29:26;99628.25;;;17.80;84.39
76847;BME280;65813;49.546;8.644;2023-08-01T19:33:27;99630.56;;;17.60;86.45
76847;BME280;65813;49.546;8.644;2023-08-01T19:37:27;99633.91;;;17.62;85.96
76847;BME280;65813;49.546;8.644;2023-08-01T19:41:28;99634.75;;;17.55;85.00
76847;BME280;65813;49.546;8.644;2023-08-01T19:45:29;99630.06;;;17.49;86.37
76847;BME280;65813;49.546;8.644;2023-08-01T19:49:30;99633.81;;;17.48;83.93
76847;BME280;65813;49.546;8.644;2023-08-01T19:53:31;99638.50;;;17.46;84.03
76847;BME280;65813;49.546;8.644;2023-08-01T19:57:32;99648.97;;;17.41;83.32
76847;BME280;65813;49.546;8.644;2023-08-01T20:01:33;99642.63;;;17.26;83.46
76847;BME280;65813;49.546;8.644;2023-08-01T20:05:36;99643.34;;;17.03;84.21
76847;BME280;65813;49.546;8.644;2023-08-01T20:09:36;99652.13;;;16.97;84.67
76847;BME280;65813;49.546;8.644;2023-08-01T20:13:37;99649.41;;;17.05;84.94
76847;BME280;65813;49.546;8.644;2023-08-01T20:17:37;99657.34;;;16.83;85.00
76847;BME280;65813;49.546;8.644;2023-08-01T20:21:38;99655.16;;;16.86;84.47
76847;BME280;65813;49.546;8.644;2023-08-01T20:25:38;99656.53;;;16.74;84.74
76847;BME280;65813;49.546;8.644;2023-08-01T20:29:39;99667.28;;;16.74;83.22
76847;BME280;65813;49.546;8.644;2023-08-01T20:33:40;99664.41;;;16.76;83.94
76847;BME280;65813;49.546;8.644;2023-08-01T20:37:40;99663.75;;;16.65;85.31
76847;BME280;65813;49.546;8.644;2023-08-01T20:41:42;99662.06;;;16.89;83.83
76847;BME280;65813;49.546;8.644;2023-08-01T20:45:42;99666.56;;;17.04;84.85
76847;BME280;65813;49.546;8.644;2023-08-01T20:49:42;99665.06;;;17.10;83.36
76847;BME280;65813;49.546;8.644;2023-08-01T20:53:43;99656.81;;;17.03;84.29
76847;BME280;65813;49.546;8.644;2023-08-01T20:57:43;99653.47;;;17.01;82.97
76847;BME280;65813;49.546;8.644;2023-08-01T21:01:43;99656.28;;;17.16;83.38
76847;BME280;65813;49.546;8.644;2023-08-01T21:05:44;99654.34;;;16.86;85.28
76847;BME280;65813;49.546;8.644;2023-08-01T21:09:44;99655.84;;;16.80;82.76
76847;BME280;65813;49.546;8.644;2023-08-01T21:13:44;99645.41;;;16.45;84.08
